createdAt,value
2022-08-05T00:00:17.470Z,67.40
2022-08-05T00:02:51.696Z,67.50
2022-08-05T00:06:02.110Z,67.30
2022-08-05T00:08:34.182Z,67.00
2022-08-05T00:11:00.385Z,66.90
2022-08-05T00:13:39.477Z,67.00
2022-08-05T00:16:14.423Z,67.50
2022-08-05T00:18:48.163Z,67.00
2022-08-05T00:21:17.570Z,66.90
2022-08-05T00:23:53.646Z,66.70
2022-08-05T00:26:34.226Z,67.10
2022-08-05T00:29:01.056Z,66.70
2022-08-05T00:31:53.554Z,67.20
2022-08-05T00:34:56.930Z,67.00
2022-08-05T00:37:13.520Z,67.20
2022-08-05T00:39:58.076Z,67.10
2022-08-05T00:42:43.287Z,67.20
2022-08-05T00:45:16.198Z,66.90
2022-08-05T00:48:05.102Z,67.30
2022-08-05T00:50:32.766Z,66.70
2022-08-05T00:53:00.254Z,66.30
2022-08-05T00:55:42.325Z,67.40
2022-08-05T00:58:11.585Z,66.30
2022-08-05T01:00:39.754Z,66.20
2022-08-05T01:03:07.654Z,65.90
2022-08-05T01:05:35.464Z,66.70
2022-08-05T01:08:30.647Z,66.30
2022-08-05T01:10:54.850Z,65.80
2022-08-05T01:13:57.110Z,66.10
2022-08-05T01:16:34.057Z,66.20
2022-08-05T01:19:56.429Z,65.90
2022-08-05T01:22:29.198Z,65.50
2022-08-05T01:25:13.595Z,65.30
2022-08-05T01:28:06.957Z,65.40
2022-08-05T01:30:40.152Z,65.60
2022-08-05T01:33:21.229Z,65.40
2022-08-05T01:35:55.586Z,65.20
2022-08-05T01:38:30.218Z,64.90
2022-08-05T01:41:01.667Z,65.10
2022-08-05T01:43:30.275Z,65.30
2022-08-05T01:45:58.801Z,65.20
2022-08-05T01:48:36.829Z,65.80
2022-08-05T01:51:11.960Z,65.20
2022-08-05T01:53:57.846Z,65.80
2022-08-05T01:58:12.248Z,66.70
2022-08-05T01:59:30.813Z,66.90
2022-08-05T02:02:01.632Z,66.90
2022-08-05T02:04:31.398Z,68.40
2022-08-05T02:06:58.936Z,67.50
2022-08-05T02:09:26.650Z,68.60
2022-08-05T02:12:01.049Z,67.90
2022-08-05T02:14:33.294Z,67.50
2022-08-05T02:17:16.771Z,67.70
2022-08-05T02:20:01.899Z,68.30
2022-08-05T02:22:33.258Z,68.20
2022-08-05T02:25:08.351Z,68.60
2022-08-05T02:27:59.036Z,68.70
2022-08-05T02:30:32.379Z,68.70
2022-08-05T02:33:03.807Z,68.60
2022-08-05T02:35:43.759Z,68.80
2022-08-05T02:38:19.515Z,68.70
2022-08-05T02:40:47.619Z,69.40
2022-08-05T02:43:16.653Z,69.50
2022-08-05T02:45:52.484Z,67.80
2022-08-05T02:48:29.204Z,69.10
2022-08-05T02:51:01.170Z,68.10
2022-08-05T02:53:39.328Z,68.80
2022-08-05T02:56:11.170Z,67.50
2022-08-05T02:58:45.003Z,67.00
2022-08-05T03:01:23.243Z,67.20
2022-08-05T03:04:02.953Z,67.00
2022-08-05T03:06:55.891Z,67.00
2022-08-05T03:09:36.228Z,66.70
2022-08-05T03:12:06.552Z,66.10
2022-08-05T03:14:39.019Z,65.90
2022-08-05T03:17:13.255Z,65.40
2022-08-05T03:19:40.014Z,65.40
2022-08-05T03:22:16.360Z,65.50
2022-08-05T03:24:49.048Z,64.80
2022-08-05T03:27:19.773Z,65.40
2022-08-05T03:30:07.222Z,65.70
2022-08-05T03:32:34.324Z,65.30
2022-08-05T03:35:04.454Z,65.10
2022-08-05T03:37:45.815Z,64.90
2022-08-05T03:40:15.269Z,65.10
2022-08-05T03:42:52.580Z,65.00
2022-08-05T03:45:21.692Z,65.30
2022-08-05T03:47:50.353Z,65.10
2022-08-05T03:50:17.468Z,64.60
2022-08-05T03:55:53.789Z,65.80
2022-08-05T03:56:18.047Z,65.40
2022-08-05T03:59:07.539Z,65.60
2022-08-05T04:01:39.626Z,65.70
2022-08-05T04:04:10.092Z,66.30
2022-08-05T04:06:38.411Z,66.50
2022-08-05T04:09:15.747Z,66.70
2022-08-05T04:11:53.037Z,67.30
2022-08-05T04:14:30.331Z,68.60
2022-08-05T04:16:59.900Z,68.90
2022-08-05T04:19:28.733Z,69.20
2022-08-05T04:22:10.216Z,69.80
2022-08-05T04:24:52.734Z,69.70
2022-08-05T04:27:41.673Z,70.30
2022-08-05T04:30:08.557Z,70.40
2022-08-05T04:32:36.476Z,70.30
2022-08-05T04:35:04.842Z,70.30
2022-08-05T04:38:02.637Z,70.30
2022-08-05T04:40:20.046Z,70.10
2022-08-05T04:42:47.028Z,70.20
2022-08-05T04:45:23.037Z,69.70
2022-08-05T04:48:06.017Z,69.50
2022-08-05T04:51:02.926Z,69.90
2022-08-05T04:53:29.434Z,69.80
2022-08-05T04:56:33.789Z,69.80
2022-08-05T04:58:47.426Z,70.10
2022-08-05T05:01:14.489Z,70.00
2022-08-05T05:04:00.659Z,70.00
2022-08-05T05:06:36.528Z,69.80
2022-08-05T05:09:07.783Z,70.10
2022-08-05T05:11:41.442Z,70.70
2022-08-05T05:14:27.515Z,70.40
2022-08-05T05:17:02.064Z,70.20
2022-08-05T05:19:36.939Z,69.80
2022-08-05T05:22:22.989Z,69.50
2022-08-05T05:24:59.812Z,69.80
2022-08-05T05:27:44.166Z,69.30
2022-08-05T05:30:28.814Z,69.10
2022-08-05T05:33:00.415Z,69.00
2022-08-05T05:35:38.067Z,69.20
2022-08-05T05:38:13.349Z,68.80
2022-08-05T05:40:48.249Z,68.80
2022-08-05T05:43:28.114Z,68.40
2022-08-05T05:46:03.901Z,68.50
2022-08-05T05:48:32.342Z,68.00
2022-08-05T05:51:13.044Z,68.10
2022-08-05T05:53:54.206Z,68.30
2022-08-05T05:56:32.406Z,68.80
2022-08-05T05:59:06.661Z,68.30
2022-08-05T06:01:57.611Z,68.80
2022-08-05T06:04:25.464Z,68.80
2022-08-05T06:06:52.355Z,68.60
2022-08-05T06:09:25.606Z,68.70
2022-08-05T06:12:06.616Z,68.50
2022-08-05T06:14:37.214Z,67.90
2022-08-05T06:17:31.874Z,67.80
2022-08-05T06:19:56.523Z,67.60
2022-08-05T06:22:33.683Z,67.10
2022-08-05T06:25:25.237Z,67.00
2022-08-05T06:28:11.284Z,66.50
2022-08-05T06:30:39.052Z,66.10
2022-08-05T06:33:09.988Z,66.70
2022-08-05T06:36:07.984Z,66.60
2022-08-05T06:38:36.283Z,65.80
2022-08-05T06:41:05.360Z,64.70
2022-08-05T06:43:57.957Z,64.20
2022-08-05T06:46:22.128Z,63.80
2022-08-05T06:48:58.901Z,63.90
2022-08-05T06:51:29.882Z,64.90
2022-08-05T06:54:02.672Z,63.00
2022-08-05T06:56:34.162Z,62.70
2022-08-05T06:59:03.758Z,64.20
2022-08-05T07:01:35.965Z,63.20
2022-08-05T07:04:03.821Z,64.00
2022-08-05T07:06:31.825Z,61.40
2022-08-05T07:09:00.336Z,62.10
2022-08-05T07:11:32.921Z,61.60
2022-08-05T07:14:29.612Z,60.30
2022-08-05T07:18:08.750Z,59.70
2022-08-05T07:20:34.019Z,58.90
2022-08-05T07:22:37.449Z,56.00
2022-08-05T07:25:54.332Z,53.10
2022-08-05T07:27:57.489Z,51.30
2022-08-05T07:30:39.785Z,48.70
2022-08-05T07:33:16.046Z,46.50
2022-08-05T07:36:01.433Z,45.90
2022-08-05T07:38:42.772Z,46.10
2022-08-05T07:42:07.209Z,43.80
2022-08-05T07:44:04.578Z,43.60
2022-08-05T07:46:33.808Z,40.80
2022-08-05T07:49:05.802Z,40.40
2022-08-05T07:51:36.610Z,38.90
2022-08-05T07:54:05.419Z,37.40
2022-08-05T07:57:00.474Z,36.70
2022-08-05T07:59:23.189Z,35.60
2022-08-05T08:01:58.144Z,34.70
2022-08-05T08:04:37.640Z,33.80
2022-08-05T08:07:07.451Z,33.10
2022-08-05T08:09:35.364Z,33.10
2022-08-05T08:12:14.043Z,32.10
2022-08-05T08:14:47.214Z,32.10
2022-08-05T08:17:16.132Z,32.00
2022-08-05T08:20:21.496Z,31.50
2022-08-05T08:22:32.574Z,30.30
2022-08-05T08:25:03.291Z,31.10
2022-08-05T08:27:40.113Z,31.40
2022-08-05T08:30:20.170Z,31.10
2022-08-05T08:32:57.382Z,30.20
2022-08-05T08:35:26.679Z,30.90
2022-08-05T08:37:56.343Z,31.20
2022-08-05T08:40:24.526Z,31.20
2022-08-05T08:42:52.991Z,32.00
2022-08-05T08:45:26.986Z,32.20
2022-08-05T08:48:07.538Z,32.90
2022-08-05T08:51:07.667Z,34.70
2022-08-05T08:53:44.408Z,34.90
2022-08-05T08:56:12.377Z,33.20
2022-08-05T08:58:47.581Z,33.60
2022-08-05T09:01:17.979Z,32.60
2022-08-05T09:03:55.803Z,32.60
2022-08-05T09:06:29.620Z,30.40
2022-08-05T09:08:58.595Z,30.30
2022-08-05T09:11:50.770Z,31.40
2022-08-05T09:14:58.531Z,31.70
2022-08-05T09:17:05.455Z,31.00
2022-08-05T09:19:55.185Z,30.20
2022-08-05T09:22:31.823Z,31.40
2022-08-05T09:25:02.012Z,30.70
2022-08-05T09:28:03.962Z,29.90
2022-08-05T09:30:27.798Z,29.20
2022-08-05T09:33:02.413Z,29.90
2022-08-05T09:35:31.650Z,29.40
2022-08-05T09:38:11.975Z,28.80
2022-08-05T09:40:52.379Z,29.00
2022-08-05T09:43:40.526Z,29.10
2022-08-05T09:46:28.433Z,28.70
2022-08-05T09:49:07.654Z,29.60
2022-08-05T09:51:44.353Z,30.40
2022-08-05T09:54:16.497Z,32.00
2022-08-05T09:56:57.640Z,33.30
2022-08-05T09:59:28.279Z,34.80
2022-08-05T10:01:57.674Z,35.20
2022-08-05T10:04:39.631Z,35.40
2022-08-05T10:07:20.774Z,36.20
2022-08-05T10:10:14.403Z,37.80
2022-08-05T10:12:49.255Z,37.70
2022-08-05T10:15:21.596Z,38.30
2022-08-05T10:18:23.000Z,37.10
2022-08-05T10:20:56.681Z,35.20
2022-08-05T10:23:55.393Z,33.10
2022-08-05T10:26:24.224Z,31.00
2022-08-05T10:28:58.754Z,30.90
2022-08-05T10:32:53.760Z,31.10
2022-08-05T10:34:12.769Z,30.90
2022-08-05T10:36:41.393Z,30.50
2022-08-05T10:40:03.749Z,30.20
2022-08-05T10:42:33.455Z,29.20
2022-08-05T10:45:02.070Z,29.30
2022-08-05T10:48:04.898Z,28.40
2022-08-05T10:51:22.241Z,29.00
2022-08-05T10:54:05.918Z,30.30
2022-08-05T10:56:55.958Z,31.30
2022-08-05T11:00:04.248Z,30.70
2022-08-05T11:02:37.821Z,30.20
2022-08-05T11:05:10.526Z,31.20
2022-08-05T11:08:03.298Z,32.10
2022-08-05T11:10:38.344Z,32.40
2022-08-05T11:13:57.778Z,34.00
2022-08-05T11:16:47.506Z,36.00
2022-08-05T11:20:10.335Z,38.30
2022-08-05T11:22:38.807Z,38.90
2022-08-05T11:26:04.310Z,39.10
2022-08-05T11:28:22.408Z,40.90
2022-08-05T11:30:58.499Z,40.30
2022-08-05T11:33:34.727Z,41.70
2022-08-05T11:36:15.412Z,42.30
2022-08-05T11:39:01.057Z,42.60
2022-08-05T11:41:58.119Z,40.20
2022-08-05T11:44:40.559Z,38.40
2022-08-05T11:47:10.945Z,35.90
2022-08-05T11:49:43.295Z,36.80
2022-08-05T11:52:29.358Z,35.20
2022-08-05T11:54:58.187Z,34.80
2022-08-05T11:57:30.627Z,33.10
2022-08-05T12:00:24.851Z,32.60
2022-08-05T12:02:54.482Z,32.00
2022-08-05T12:05:36.354Z,31.80
2022-08-05T12:08:10.445Z,30.40
2022-08-05T12:10:45.248Z,31.20
2022-08-05T12:13:27.611Z,30.40
2022-08-05T12:15:55.879Z,30.00
2022-08-05T12:18:33.150Z,29.70
2022-08-05T12:21:39.146Z,30.10
2022-08-05T12:24:17.317Z,29.70
2022-08-05T12:26:50.129Z,29.90
2022-08-05T12:29:25.891Z,30.50
2022-08-05T12:32:01.840Z,30.30
2022-08-05T12:34:35.725Z,29.70
2022-08-05T12:37:17.638Z,28.80
2022-08-05T12:40:03.557Z,29.20
2022-08-05T12:42:37.553Z,29.10
2022-08-05T12:45:08.787Z,28.60
2022-08-05T12:47:37.935Z,28.10
2022-08-05T12:50:19.865Z,27.50
2022-08-05T12:52:59.648Z,27.30
2022-08-05T12:55:32.980Z,28.00
2022-08-05T12:58:50.579Z,27.60
2022-08-05T13:01:59.858Z,27.50
2022-08-05T13:03:42.119Z,28.40
2022-08-05T13:06:16.360Z,28.80
2022-08-05T13:08:51.406Z,29.90
2022-08-05T13:12:01.585Z,30.00
2022-08-05T13:14:24.647Z,28.80
2022-08-05T13:16:57.245Z,29.70
2022-08-05T13:19:27.690Z,29.90
2022-08-05T13:22:14.516Z,29.90
2022-08-05T13:24:58.134Z,31.00
2022-08-05T13:27:42.976Z,32.10
2022-08-05T13:30:35.978Z,33.60
2022-08-05T13:33:00.834Z,33.70
2022-08-05T13:35:42.820Z,35.30
2022-08-05T13:38:30.982Z,34.50
2022-08-05T13:41:01.433Z,36.50
2022-08-05T13:43:45.582Z,37.60
2022-08-05T13:46:16.256Z,37.40
2022-08-05T13:48:57.874Z,37.60
2022-08-05T13:51:36.541Z,37.90
2022-08-05T13:54:12.343Z,39.20
2022-08-05T13:56:44.992Z,39.70
2022-08-05T13:59:20.307Z,38.90
2022-08-05T14:01:56.696Z,39.60
2022-08-05T14:04:51.169Z,39.90
2022-08-05T14:07:26.514Z,40.40
2022-08-05T14:10:13.115Z,40.00
2022-08-05T14:12:42.987Z,40.40
2022-08-05T14:16:05.913Z,41.00
2022-08-05T14:18:03.852Z,41.00
2022-08-05T14:20:31.010Z,41.60
2022-08-05T14:22:59.010Z,42.30
2022-08-05T14:25:28.057Z,41.80
2022-08-05T14:27:55.987Z,42.30
2022-08-05T14:30:23.182Z,42.70
2022-08-05T14:32:53.713Z,43.00
2022-08-05T14:35:22.781Z,43.90
2022-08-05T14:37:55.021Z,43.60
2022-08-05T14:40:24.487Z,44.20
2022-08-05T14:42:52.381Z,45.00
2022-08-05T14:45:19.503Z,44.90
2022-08-05T14:48:03.209Z,45.30
2022-08-05T14:50:32.380Z,45.10
2022-08-05T14:53:00.191Z,45.30
2022-08-05T14:55:39.204Z,46.00
2022-08-05T14:58:13.817Z,46.50
2022-08-05T15:00:58.695Z,45.80
2022-08-05T15:03:33.563Z,46.50
2022-08-05T15:06:13.175Z,46.50
2022-08-05T15:08:58.407Z,46.40
2022-08-05T15:11:51.556Z,46.80
2022-08-05T15:14:20.285Z,47.90
2022-08-05T15:17:03.711Z,48.50
2022-08-05T15:19:31.406Z,48.90
2022-08-05T15:22:01.272Z,49.00
2022-08-05T15:24:29.258Z,49.20
2022-08-05T15:26:57.122Z,49.50
2022-08-05T15:29:29.864Z,50.50
2022-08-05T15:32:03.069Z,50.60
2022-08-05T15:34:32.527Z,51.50
2022-08-05T15:37:07.011Z,51.30
2022-08-05T15:41:02.133Z,51.10
2022-08-05T15:42:58.338Z,51.30
2022-08-05T15:45:16.882Z,51.50
2022-08-05T15:47:46.355Z,51.90
2022-08-05T15:50:15.992Z,51.70
2022-08-05T15:52:54.584Z,52.30
2022-08-05T15:55:24.917Z,52.80
2022-08-05T15:58:16.410Z,53.30
2022-08-05T16:01:03.485Z,53.70
2022-08-05T16:03:32.745Z,54.50
2022-08-05T16:06:00.993Z,54.90
2022-08-05T16:08:30.395Z,54.70
2022-08-05T16:10:58.819Z,54.90
2022-08-05T16:13:31.902Z,55.50
2022-08-05T16:16:02.065Z,55.80
2022-08-05T16:18:30.636Z,55.80
2022-08-05T16:20:58.576Z,55.80
2022-08-05T16:23:28.391Z,56.20
2022-08-05T16:26:17.771Z,55.70
2022-08-05T16:28:45.263Z,55.80
2022-08-05T16:31:12.207Z,56.50
2022-08-05T16:33:41.508Z,55.90
2022-08-05T16:36:09.545Z,56.10
2022-08-05T16:38:36.607Z,56.70
2022-08-05T16:42:12.057Z,56.80
2022-08-05T16:43:56.277Z,56.40
2022-08-05T16:46:24.671Z,56.40
2022-08-05T16:48:52.053Z,55.90
2022-08-05T16:51:20.619Z,55.90
2022-08-05T16:54:03.018Z,55.90
2022-08-05T16:56:36.543Z,56.40
2022-08-05T16:59:11.906Z,56.10
2022-08-05T17:01:54.477Z,56.30
2022-08-05T17:04:27.477Z,56.20
2022-08-05T17:06:57.003Z,56.10
2022-08-05T17:09:28.443Z,56.50
2022-08-05T17:11:59.697Z,57.10
2022-08-05T17:14:36.971Z,56.70
2022-08-05T17:17:14.214Z,57.00
2022-08-05T17:19:43.832Z,57.40
2022-08-05T17:22:24.744Z,57.50
2022-08-05T17:24:58.188Z,57.60
2022-08-05T17:27:33.639Z,58.10
2022-08-05T17:30:02.726Z,58.40
2022-08-05T17:32:30.339Z,59.20
2022-08-05T17:35:00.931Z,60.30
2022-08-05T17:37:41.201Z,61.10
2022-08-05T17:40:14.831Z,62.20
2022-08-05T17:42:50.501Z,62.90
2022-08-05T17:45:22.093Z,63.60
2022-08-05T17:47:54.593Z,64.20
2022-08-05T17:50:29.509Z,65.10
2022-08-05T17:53:05.229Z,65.30
2022-08-05T17:55:37.588Z,66.30
2022-08-05T17:58:09.733Z,67.10
2022-08-05T18:00:44.446Z,67.20
2022-08-05T18:03:33.480Z,67.60
2022-08-05T18:06:05.814Z,67.90
2022-08-05T18:08:33.808Z,68.50
2022-08-05T18:11:01.071Z,69.00
2022-08-05T18:13:36.717Z,69.30
2022-08-05T18:16:13.409Z,69.50
2022-08-05T18:18:41.648Z,69.80
2022-08-05T18:21:21.246Z,70.30
2022-08-05T18:23:53.731Z,70.90
2022-08-05T18:26:29.071Z,71.30
2022-08-05T18:28:59.566Z,71.80
2022-08-05T18:31:33.937Z,72.20
2022-08-05T18:34:05.958Z,72.60
2022-08-05T18:36:35.538Z,72.80
2022-08-05T18:39:06.506Z,73.30
2022-08-05T18:42:11.389Z,73.70
2022-08-05T18:44:48.870Z,73.90
2022-08-05T18:47:19.063Z,74.30
2022-08-05T18:50:10.755Z,74.60
2022-08-05T18:52:41.504Z,74.70
2022-08-05T18:55:19.171Z,75.00
2022-08-05T18:57:53.148Z,75.30
2022-08-05T19:00:26.983Z,75.20
2022-08-05T19:03:04.057Z,75.30
2022-08-05T19:06:11.758Z,75.80
2022-08-05T19:08:19.915Z,75.70
2022-08-05T19:10:49.973Z,75.20
2022-08-05T19:13:17.109Z,75.40
2022-08-05T19:15:57.194Z,74.60
2022-08-05T19:18:25.647Z,74.30
2022-08-05T19:20:52.774Z,74.60
2022-08-05T19:24:03.642Z,74.40
2022-08-05T19:26:08.556Z,74.80
2022-08-05T19:28:42.023Z,74.90
2022-08-05T19:31:13.230Z,74.60
2022-08-05T19:33:48.435Z,74.60
2022-08-05T19:36:27.169Z,73.90
2022-08-05T19:38:58.986Z,73.90
2022-08-05T19:42:05.732Z,74.00
2022-08-05T19:44:16.761Z,74.00
2022-08-05T19:46:45.565Z,73.20
2022-08-05T19:49:16.968Z,72.70
2022-08-05T19:52:04.300Z,72.00
2022-08-05T19:54:34.259Z,71.80
2022-08-05T19:57:06.675Z,71.90
2022-08-05T19:59:56.169Z,71.80
2022-08-05T20:02:25.913Z,71.40
2022-08-05T20:04:53.841Z,71.00
2022-08-05T20:07:48.160Z,70.40
2022-08-05T20:10:13.666Z,70.20
2022-08-05T20:12:47.686Z,70.20
2022-08-05T20:15:48.758Z,70.00
2022-08-05T20:18:10.892Z,69.70
2022-08-05T20:20:51.859Z,69.30
2022-08-05T20:23:22.585Z,69.40
2022-08-05T20:25:49.486Z,69.10
2022-08-05T20:28:19.268Z,68.70
2022-08-05T20:30:46.303Z,68.50
2022-08-05T20:33:16.597Z,68.50
2022-08-05T20:35:45.941Z,69.10
2022-08-05T20:38:20.015Z,69.70
2022-08-05T20:40:55.346Z,69.90
2022-08-05T20:43:57.600Z,69.80
2022-08-05T20:46:10.191Z,70.10
2022-08-05T20:48:39.448Z,72.00
2022-08-05T20:51:09.261Z,77.50
2022-08-05T20:53:40.904Z,79.90
2022-08-05T20:56:09.739Z,81.80
2022-08-05T20:58:37.164Z,83.40
2022-08-05T21:01:16.784Z,84.90
2022-08-05T21:03:50.474Z,85.10
2022-08-05T21:06:27.687Z,86.10
2022-08-05T21:08:57.680Z,86.40
2022-08-05T21:12:09.931Z,86.70
2022-08-05T21:14:14.819Z,88.40
2022-08-05T21:16:42.342Z,89.70
2022-08-05T21:19:09.431Z,90.70
2022-08-05T21:21:50.445Z,91.80
2022-08-05T21:24:19.366Z,91.50
2022-08-05T21:26:53.688Z,92.70
2022-08-05T21:29:32.049Z,94.10
2022-08-05T21:32:01.429Z,93.50
2022-08-05T21:34:35.402Z,93.70
2022-08-05T21:37:02.803Z,94.40
2022-08-05T21:39:29.904Z,95.30
2022-08-05T21:42:01.456Z,94.20
2022-08-05T21:44:30.342Z,91.40
2022-08-05T21:46:58.489Z,88.60
2022-08-05T21:50:00.253Z,88.90
2022-08-05T21:52:23.030Z,89.20
2022-08-05T21:54:56.999Z,88.40
2022-08-05T21:57:32.311Z,89.60
2022-08-05T22:00:06.288Z,88.60
2022-08-05T22:02:41.488Z,88.60
2022-08-05T22:05:09.581Z,89.30
2022-08-05T22:07:40.022Z,89.20
2022-08-05T22:10:26.750Z,88.40
2022-08-05T22:12:59.159Z,88.80
2022-08-05T22:16:01.780Z,88.10
2022-08-05T22:18:24.885Z,89.10
2022-08-05T22:20:53.700Z,89.80
2022-08-05T22:24:02.979Z,90.40
2022-08-05T22:26:49.602Z,91.00
2022-08-05T22:29:17.676Z,91.20
2022-08-05T22:31:45.780Z,90.00
2022-08-05T22:34:28.459Z,90.40
2022-08-05T22:36:56.800Z,90.40
2022-08-05T22:39:30.962Z,90.40
2022-08-05T22:42:09.875Z,90.90
2022-08-05T22:44:38.837Z,90.70
2022-08-05T22:47:06.664Z,90.10
2022-08-05T22:50:20.484Z,90.40
2022-08-05T22:52:30.223Z,90.90
2022-08-05T22:54:59.759Z,90.60
2022-08-05T22:57:26.935Z,90.80
2022-08-05T23:00:02.851Z,90.40
2022-08-05T23:02:30.274Z,91.60
2022-08-05T23:05:01.438Z,91.90
2022-08-05T23:07:44.742Z,91.80
2022-08-05T23:10:13.871Z,92.60
2022-08-05T23:12:40.834Z,92.60
2022-08-05T23:15:11.914Z,92.70
2022-08-05T23:18:00.585Z,93.20
2022-08-05T23:20:26.225Z,93.30
2022-08-05T23:22:55.865Z,91.60
2022-08-05T23:25:53.412Z,91.90
2022-08-05T23:28:11.241Z,92.30
2022-08-05T23:30:39.992Z,93.10
2022-08-05T23:33:22.118Z,92.90
2022-08-05T23:35:56.059Z,92.80
2022-08-05T23:38:24.521Z,93.40
2022-08-05T23:40:52.863Z,92.50
2022-08-05T23:43:25.487Z,93.00
2022-08-05T23:46:19.912Z,92.90
2022-08-05T23:49:00.720Z,92.80
2022-08-05T23:51:54.079Z,92.90
2022-08-05T23:54:25.705Z,93.40
2022-08-05T23:56:54.058Z,93.00
2022-08-05T23:59:20.860Z,92.60
